sensor_id;sensor_type;location;lat;lon;timestamp;pressure;altitude;pressure_sealevel;temperature;humidity
17525;BME280;40431;52.198;9.902;2022-12-08T00:01:45;99974.53;;;2.80;100.00
17525;BME280;40431;52.198;9.902;2022-12-08T00:04:29;99969.06;;;2.83;100.00
17525;BME280;40431;52.198;9.902;2022-12-08T00:07:18;99973.44;;;2.86;100.00
17525;BME280;40431;52.198;9.902;2022-12-08T00:10:03;99970.00;;;2.82;100.00
17525;BME280;40431;52.198;9.902;2022-12-08T00:12:37;99964.59;;;2.84;100.00
17525;BME280;40431;52.198;9.902;2022-12-08T00:15:15;99971.06;;;2.78;100.00
17525;BME280;40431;52.198;9.902;2022-12-08T00:17:45;99961.41;;;2.74;100.00
17525;BME280;40431;52.198;9.902;2022-12-08T00:20:24;99955.22;;;2.72;100.00
17525;BME280;40431;52.198;9.902;2022-12-08T00:22:56;99959.56;;;2.75;100.00
17525;BME280;40431;52.198;9.902;2022-12-08T00:25:35;99954.34;;;2.72;100.00
17525;BME280;40431;52.198;9.902;2022-12-08T00:28:11;99955.47;;;2.66;100.00
17525;BME280;40431;52.198;9.902;2022-12-08T00:30:49;99943.94;;;2.64;100.00
17525;BME280;40431;52.198;9.902;2022-12-08T00:33:20;99943.09;;;2.62;100.00
17525;BME280;40431;52.198;9.902;2022-12-08T00:35:54;99940.56;;;2.59;100.00
17525;BME280;40431;52.198;9.902;2022-12-08T00:38:29;99943.28;;;2.57;100.00
17525;BME280;40431;52.198;9.902;2022-12-08T00:41:01;99943.34;;;2.56;100.00
17525;BME280;40431;52.198;9.902;2022-12-08T00:43:35;99932.72;;;2.54;100.00
17525;BME280;40431;52.198;9.902;2022-12-08T00:46:07;99931.81;;;2.54;100.00
17525;BME280;40431;52.198;9.902;2022-12-08T00:48:37;99924.72;;;2.53;100.00
17525;BME280;40431;52.198;9.902;2022-12-08T00:51:05;99931.94;;;2.50;100.00
17525;BME280;40431;52.198;9.902;2022-12-08T00:53:38;99931.13;;;2.48;100.00
17525;BME280;40431;52.198;9.902;2022-12-08T00:56:28;99925.97;;;2.44;100.00
17525;BME280;40431;52.198;9.902;2022-12-08T00:58:58;99923.34;;;2.42;100.00
17525;BME280;40431;52.198;9.902;2022-12-08T01:01:32;99919.84;;;2.40;100.00
17525;BME280;40431;52.198;9.902;2022-12-08T01:04:12;99919.97;;;2.37;100.00
17525;BME280;40431;52.198;9.902;2022-12-08T01:06:42;99921.00;;;2.33;100.00
17525;BME280;40431;52.198;9.902;2022-12-08T01:09:11;99924.59;;;2.32;100.00
17525;BME280;40431;52.198;9.902;2022-12-08T01:11:42;99921.00;;;2.33;100.00
17525;BME280;40431;52.198;9.902;2022-12-08T01:14:15;99926.47;;;2.30;100.00
17525;BME280;40431;52.198;9.902;2022-12-08T01:16:46;99928.66;;;2.19;100.00
17525;BME280;40431;52.198;9.902;2022-12-08T01:19:23;99915.09;;;2.25;100.00
17525;BME280;40431;52.198;9.902;2022-12-08T01:22:06;99922.06;;;2.29;100.00
17525;BME280;40431;52.198;9.902;2022-12-08T01:24:38;99924.69;;;2.30;100.00
17525;BME280;40431;52.198;9.902;2022-12-08T01:27:14;99929.19;;;2.28;100.00
17525;BME280;40431;52.198;9.902;2022-12-08T01:30:06;99930.09;;;2.29;100.00
17525;BME280;40431;52.198;9.902;2022-12-08T01:32:43;99925.59;;;2.29;100.00
17525;BME280;40431;52.198;9.902;2022-12-08T01:35:24;99926.47;;;2.30;100.00
17525;BME280;40431;52.198;9.902;2022-12-08T01:38:11;99921.88;;;2.33;100.00
17525;BME280;40431;52.198;9.902;2022-12-08T01:40:49;99921.88;;;2.33;100.00
17525;BME280;40431;52.198;9.902;2022-12-08T01:43:20;99926.47;;;2.30;100.00
17525;BME280;40431;52.198;9.902;2022-12-08T01:45:50;99920.88;;;2.36;100.00
17525;BME280;40431;52.198;9.902;2022-12-08T01:48:29;99919.03;;;2.38;100.00
17525;BME280;40431;52.198;9.902;2022-12-08T01:51:14;99917.34;;;2.36;100.00
17525;BME280;40431;52.198;9.902;2022-12-08T01:53:57;99913.91;;;2.32;100.00
17525;BME280;40431;52.198;9.902;2022-12-08T01:56:39;99916.38;;;2.38;100.00
17525;BME280;40431;52.198;9.902;2022-12-08T01:59:39;99924.25;;;2.41;100.00
17525;BME280;40431;52.198;9.902;2022-12-08T02:02:23;99918.91;;;2.41;100.00
17525;BME280;40431;52.198;9.902;2022-12-08T02:04:58;99917.28;;;2.37;100.00
17525;BME280;40431;52.198;9.902;2022-12-08T02:07:43;99911.16;;;2.33;100.00
17525;BME280;40431;52.198;9.902;2022-12-08T02:10:19;99914.78;;;2.32;100.00
17525;BME280;40431;52.198;9.902;2022-12-08T02:12:51;99911.94;;;2.37;100.00
17525;BME280;40431;52.198;9.902;2022-12-08T02:15:23;99900.41;;;2.35;100.00
17525;BME280;40431;52.198;9.902;2022-12-08T02:18:02;99904.84;;;2.36;100.00
17525;BME280;40431;52.198;9.902;2022-12-08T02:21:03;99896.34;;;2.25;100.00
17525;BME280;40431;52.198;9.902;2022-12-08T02:27:04;99881.28;;;2.22;100.00
17525;BME280;40431;52.198;9.902;2022-12-08T02:32:52;99881.31;;;2.21;100.00
17525;BME280;40431;52.198;9.902;2022-12-08T02:35:58;99878.72;;;2.19;100.00
17525;BME280;40431;52.198;9.902;2022-12-08T02:39:07;99867.72;;;2.27;100.00
17525;BME280;40431;52.198;9.902;2022-12-08T02:41:55;99873.19;;;2.24;100.00
17525;BME280;40431;52.198;9.902;2022-12-08T02:44:34;99871.97;;;2.32;100.00
17525;BME280;40431;52.198;9.902;2022-12-08T02:47:07;99867.72;;;2.27;100.00
17525;BME280;40431;52.198;9.902;2022-12-08T02:49:36;99868.56;;;2.29;100.00
17525;BME280;40431;52.198;9.902;2022-12-08T02:52:34;99871.22;;;2.29;100.00
17525;BME280;40431;52.198;9.902;2022-12-08T02:55:01;99863.91;;;2.34;100.00
17525;BME280;40431;52.198;9.902;2022-12-08T02:57:41;99863.06;;;2.32;100.00
17525;BME280;40431;52.198;9.902;2022-12-08T03:00:16;99855.06;;;2.32;100.00
17525;BME280;40431;52.198;9.902;2022-12-08T03:03:14;99856.81;;;2.33;100.00
17525;BME280;40431;52.198;9.902;2022-12-08T03:05:59;99849.81;;;2.29;100.00
17525;BME280;40431;52.198;9.902;2022-12-08T03:08:44;99846.91;;;2.35;100.00
17525;BME280;40431;52.198;9.902;2022-12-08T03:11:23;99840.19;;;2.25;100.00
17525;BME280;40431;52.198;9.902;2022-12-08T03:13:59;99830.56;;;2.19;100.00
17525;BME280;40431;52.198;9.902;2022-12-08T03:16:29;99835.00;;;2.20;100.00
17525;BME280;40431;52.198;9.902;2022-12-08T03:19:00;99828.66;;;2.23;100.00
17525;BME280;40431;52.198;9.902;2022-12-08T03:21:31;99826.09;;;2.20;100.00
17525;BME280;40431;52.198;9.902;2022-12-08T03:24:01;99824.47;;;2.15;100.00
17525;BME280;40431;52.198;9.902;2022-12-08T03:26:35;99827.94;;;2.17;100.00
17525;BME280;40431;52.198;9.902;2022-12-08T03:29:06;99817.09;;;2.22;100.00
17525;BME280;40431;52.198;9.902;2022-12-08T03:31:40;99824.28;;;2.20;100.00
17525;BME280;40431;52.198;9.902;2022-12-08T03:34:19;99820.78;;;2.18;100.00
17525;BME280;40431;52.198;9.902;2022-12-08T03:36:49;99820.78;;;2.18;100.00
17525;BME280;40431;52.198;9.902;2022-12-08T03:39:18;99812.81;;;2.16;100.00
17525;BME280;40431;52.198;9.902;2022-12-08T03:41:48;99809.94;;;2.23;100.00
17525;BME280;40431;52.198;9.902;2022-12-08T03:44:17;99808.31;;;2.19;100.00
17525;BME280;40431;52.198;9.902;2022-12-08T03:46:45;99817.25;;;2.17;100.00
17525;BME280;40431;52.198;9.902;2022-12-08T03:49:14;99814.56;;;2.17;100.00
17525;BME280;40431;52.198;9.902;2022-12-08T03:51:43;99802.94;;;2.19;100.00
17525;BME280;40431;52.198;9.902;2022-12-08T03:54:11;99821.69;;;2.19;100.00
17525;BME280;40431;52.198;9.902;2022-12-08T03:56:41;99809.22;;;2.17;100.00
17525;BME280;40431;52.198;9.902;2022-12-08T03:59:18;99803.03;;;2.17;100.00
17525;BME280;40431;52.198;9.902;2022-12-08T04:01:56;99800.34;;;2.17;100.00
17525;BME280;40431;52.198;9.902;2022-12-08T04:04:25;99798.41;;;2.21;100.00
17525;BME280;40431;52.198;9.902;2022-12-08T04:07:00;99793.31;;;2.14;100.00
17525;BME280;40431;52.198;9.902;2022-12-08T04:09:33;99797.47;;;2.22;100.00
17525;BME280;40431;52.198;9.902;2022-12-08T04:12:08;99792.94;;;2.24;100.00
17525;BME280;40431;52.198;9.902;2022-12-08T04:14:41;99786.97;;;2.17;100.00
17525;BME280;40431;52.198;9.902;2022-12-08T04:17:10;99785.03;;;2.21;100.00
17525;BME280;40431;52.198;9.902;2022-12-08T04:19:39;99786.47;;;2.29;100.00
17525;BME280;40431;52.198;9.902;2022-12-08T04:22:08;99793.81;;;2.24;100.00
17525;BME280;40431;52.198;9.902;2022-12-08T04:24:36;99784.03;;;2.23;100.00
17525;BME280;40431;52.198;9.902;2022-12-08T04:27:05;99781.06;;;2.31;100.00
17525;BME280;40431;52.198;9.902;2022-12-08T04:29:46;99776.69;;;2.28;100.00
17525;BME280;40431;52.198;9.902;2022-12-08T04:32:15;99787.34;;;2.30;100.00
17525;BME280;40431;52.198;9.902;2022-12-08T04:34:41;99777.53;;;2.30;100.00
17525;BME280;40431;52.198;9.902;2022-12-08T04:37:08;99771.19;;;2.33;100.00
17525;BME280;40431;52.198;9.902;2022-12-08T04:39:35;99767.69;;;2.31;100.00
17525;BME280;40431;52.198;9.902;2022-12-08T04:42:01;99773.97;;;2.30;100.00
17525;BME280;40431;52.198;9.902;2022-12-08T04:44:28;99769.38;;;2.33;100.00
17525;BME280;40431;52.198;9.902;2022-12-08T04:46:56;99771.91;;;2.37;100.00
17525;BME280;40431;52.198;9.902;2022-12-08T04:49:22;99770.56;;;2.26;100.00
17525;BME280;40431;52.198;9.902;2022-12-08T04:51:49;99771.25;;;2.31;100.00
17525;BME280;40431;52.198;9.902;2022-12-08T04:54:16;99775.09;;;2.24;100.00
17525;BME280;40431;52.198;9.902;2022-12-08T04:56:42;99765.91;;;2.31;100.00
17525;BME280;40431;52.198;9.902;2022-12-08T04:59:09;99772.03;;;2.33;100.00
17525;BME280;40431;52.198;9.902;2022-12-08T05:01:35;99764.91;;;2.34;100.00
17525;BME280;40431;52.198;9.902;2022-12-08T05:04:03;99760.50;;;2.33;100.00
17525;BME280;40431;52.198;9.902;2022-12-08T05:06:30;99752.63;;;2.28;100.00
17525;BME280;40431;52.198;9.902;2022-12-08T05:08:57;99751.00;;;2.24;100.00
17525;BME280;40431;52.198;9.902;2022-12-08T05:11:23;99756.28;;;2.26;100.00
17525;BME280;40431;52.198;9.902;2022-12-08T05:13:50;99751.53;;;2.34;100.00
17525;BME280;40431;52.198;9.902;2022-12-08T05:16:16;99748.72;;;2.37;100.00
17525;BME280;40431;52.198;9.902;2022-12-08T05:18:43;99755.00;;;2.36;100.00
17525;BME280;40431;52.198;9.902;2022-12-08T05:21:11;99755.13;;;2.33;100.00
17525;BME280;40431;52.198;9.902;2022-12-08T05:23:38;99750.78;;;2.30;100.00
17525;BME280;40431;52.198;9.902;2022-12-08T05:26:04;99745.22;;;2.35;100.00
17525;BME280;40431;52.198;9.902;2022-12-08T05:28:31;99746.84;;;2.39;100.00
17525;BME280;40431;52.198;9.902;2022-12-08T05:30:58;99748.72;;;2.37;100.00
17525;BME280;40431;52.198;9.902;2022-12-08T05:33:25;99744.16;;;2.39;100.00
17525;BME280;40431;52.198;9.902;2022-12-08T05:35:51;99746.91;;;2.38;100.00
17525;BME280;40431;52.198;9.902;2022-12-08T05:38:19;99747.66;;;2.41;100.00
17525;BME280;40431;52.198;9.902;2022-12-08T05:40:46;99744.06;;;2.42;100.00
17525;BME280;40431;52.198;9.902;2022-12-08T05:43:12;99740.44;;;2.43;100.00
17525;BME280;40431;52.198;9.902;2022-12-08T05:45:39;99739.34;;;2.49;100.00
17525;BME280;40431;52.198;9.902;2022-12-08T05:48:06;99733.00;;;2.52;100.00
17525;BME280;40431;52.198;9.902;2022-12-08T05:50:33;99731.38;;;2.47;100.00
17525;BME280;40431;52.198;9.902;2022-12-08T05:52:59;99735.75;;;2.48;100.00
17525;BME280;40431;52.198;9.902;2022-12-08T05:55:28;99736.53;;;2.52;100.00
17525;BME280;40431;52.198;9.902;2022-12-08T05:57:57;99732.09;;;2.51;100.00
17525;BME280;40431;52.198;9.902;2022-12-08T06:00:25;99727.50;;;2.55;100.00
17525;BME280;40431;52.198;9.902;2022-12-08T06:02:53;99723.75;;;2.59;100.00
17525;BME280;40431;52.198;9.902;2022-12-08T06:05:22;99724.00;;;2.53;100.00
17525;BME280;40431;52.198;9.902;2022-12-08T06:07:50;99731.09;;;2.54;100.00
17525;BME280;40431;52.198;9.902;2022-12-08T06:10:22;99720.41;;;2.54;100.00
17525;BME280;40431;52.198;9.902;2022-12-08T06:12:52;99724.13;;;2.49;100.00
17525;BME280;40431;52.198;9.902;2022-12-08T06:15:20;99722.38;;;2.48;100.00
17525;BME280;40431;52.198;9.902;2022-12-08T06:17:48;99725.06;;;2.48;100.00
17525;BME280;40431;52.198;9.902;2022-12-08T06:20:16;99726.13;;;2.44;100.00
17525;BME280;40431;52.198;9.902;2022-12-08T06:22:44;99725.03;;;2.50;100.00
17525;BME280;40431;52.198;9.902;2022-12-08T06:25:12;99732.03;;;2.53;100.00
17525;BME280;40431;52.198;9.902;2022-12-08T06:27:40;99721.69;;;2.43;100.00
17525;BME280;40431;52.198;9.902;2022-12-08T06:30:10;99728.13;;;2.39;100.00
17525;BME280;40431;52.198;9.902;2022-12-08T06:32:41;99737.19;;;2.35;100.00
17525;BME280;40431;52.198;9.902;2022-12-08T06:35:09;99730.22;;;2.31;100.00
17525;BME280;40431;52.198;9.902;2022-12-08T06:37:41;99733.09;;;2.26;100.00
17525;BME280;40431;52.198;9.902;2022-12-08T06:40:13;99728.47;;;2.30;100.00
17525;BME280;40431;52.198;9.902;2022-12-08T06:42:43;99729.53;;;2.26;100.00
17525;BME280;40431;52.198;9.902;2022-12-08T06:45:14;99729.59;;;2.24;100.00
17525;BME280;40431;52.198;9.902;2022-12-08T06:47:43;99724.47;;;2.20;100.00
17525;BME280;40431;52.198;9.902;2022-12-08T06:50:12;99719.81;;;2.25;100.00
17525;BME280;40431;52.198;9.902;2022-12-08T06:52:41;99729.47;;;2.27;100.00
17525;BME280;40431;52.198;9.902;2022-12-08T06:55:11;99720.78;;;2.22;100.00
17525;BME280;40431;52.198;9.902;2022-12-08T06:57:39;99724.25;;;2.24;100.00
17525;BME280;40431;52.198;9.902;2022-12-08T07:00:08;99730.38;;;2.28;100.00
17525;BME280;40431;52.198;9.902;2022-12-08T07:02:37;99720.44;;;2.31;100.00
17525;BME280;40431;52.198;9.902;2022-12-08T07:05:04;99722.34;;;2.28;100.00
17525;BME280;40431;52.198;9.902;2022-12-08T07:07:33;99733.72;;;2.33;100.00
17525;BME280;40431;52.198;9.902;2022-12-08T07:09:59;99740.84;;;2.34;100.00
17525;BME280;40431;52.198;9.902;2022-12-08T07:12:26;99738.09;;;2.36;100.00
17525;BME280;40431;52.198;9.902;2022-12-08T07:14:53;99733.72;;;2.33;100.00
17525;BME280;40431;52.198;9.902;2022-12-08T07:17:20;99731.06;;;2.33;100.00
17525;BME280;40431;52.198;9.902;2022-12-08T07:19:48;99733.53;;;2.38;100.00
17525;BME280;40431;52.198;9.902;2022-12-08T07:22:14;99739.78;;;2.38;100.00
17525;BME280;40431;52.198;9.902;2022-12-08T07:24:41;99744.31;;;2.36;100.00
17525;BME280;40431;52.198;9.902;2022-12-08T07:27:07;99731.75;;;2.38;100.00
17525;BME280;40431;52.198;9.902;2022-12-08T07:29:34;99738.72;;;2.42;100.00
17525;BME280;40431;52.198;9.902;2022-12-08T07:32:01;99745.13;;;2.38;100.00
17525;BME280;40431;52.198;9.902;2022-12-08T07:34:27;99734.28;;;2.41;100.00
17525;BME280;40431;52.198;9.902;2022-12-08T07:36:55;99729.88;;;2.40;100.00
17525;BME280;40431;52.198;9.902;2022-12-08T07:39:22;99732.47;;;2.42;100.00
17525;BME280;40431;52.198;9.902;2022-12-08T07:41:48;99731.78;;;2.37;100.00
17525;BME280;40431;52.198;9.902;2022-12-08T07:44:15;99740.56;;;2.40;100.00
17525;BME280;40431;52.198;9.902;2022-12-08T07:46:42;99743.25;;;2.40;100.00
17525;BME280;40431;52.198;9.902;2022-12-08T07:49:08;99740.44;;;2.43;100.00
17525;BME280;40431;52.198;9.902;2022-12-08T07:51:35;99744.06;;;2.42;100.00
17525;BME280;40431;52.198;9.902;2022-12-08T07:54:03;99737.72;;;2.45;100.00
17525;BME280;40431;52.198;9.902;2022-12-08T07:56:29;99733.28;;;2.44;100.00
17525;BME280;40431;52.198;9.902;2022-12-08T07:58:56;99738.72;;;2.42;100.00
17525;BME280;40431;52.198;9.902;2022-12-08T08:01:25;99736.84;;;2.44;100.00
17525;BME280;40431;52.198;9.902;2022-12-08T08:03:53;99740.19;;;2.49;100.00
17525;BME280;40431;52.198;9.902;2022-12-08T08:06:20;99741.19;;;2.47;100.00
17525;BME280;40431;52.198;9.902;2022-12-08T08:08:47;99738.66;;;2.44;100.00
17525;BME280;40431;52.198;9.902;2022-12-08T08:11:15;99737.75;;;2.43;100.00
17525;BME280;40431;52.198;9.902;2022-12-08T08:13:42;99747.38;;;2.49;100.00
17525;BME280;40431;52.198;9.902;2022-12-08T08:16:09;99741.19;;;2.47;100.00
17525;BME280;40431;52.198;9.902;2022-12-08T08:18:37;99747.22;;;2.52;100.00
17525;BME280;40431;52.198;9.902;2022-12-08T08:21:04;99752.50;;;2.54;100.00
17525;BME280;40431;52.198;9.902;2022-12-08T08:23:31;99747.09;;;2.55;100.00
17525;BME280;40431;52.198;9.902;2022-12-08T08:25:58;99744.63;;;2.50;100.00
17525;BME280;40431;52.198;9.902;2022-12-08T08:28:27;99747.97;;;2.56;100.00
17525;BME280;40431;52.198;9.902;2022-12-08T08:30:55;99743.56;;;2.55;100.00
17525;BME280;40431;52.198;9.902;2022-12-08T08:33:21;99749.03;;;2.52;100.00
17525;BME280;40431;52.198;9.902;2022-12-08T08:35:48;99749.78;;;2.55;100.00
17525;BME280;40431;52.198;9.902;2022-12-08T08:38:15;99745.41;;;2.53;100.00
17525;BME280;40431;52.198;9.902;2022-12-08T08:40:41;99747.28;;;2.50;100.00
17525;BME280;40431;52.198;9.902;2022-12-08T08:43:08;99747.16;;;2.54;100.00
17525;BME280;40431;52.198;9.902;2022-12-08T08:45:55;99751.53;;;2.56;100.00
17525;BME280;40431;52.198;9.902;2022-12-08T08:48:23;99749.84;;;2.54;100.00
17525;BME280;40431;52.198;9.902;2022-12-08T08:50:50;99758.56;;;2.59;100.00
17525;BME280;40431;52.198;9.902;2022-12-08T08:53:17;99755.88;;;2.59;100.00
17525;BME280;40431;52.198;9.902;2022-12-08T08:55:44;99762.84;;;2.63;100.00
17525;BME280;40431;52.198;9.902;2022-12-08T08:58:10;99762.97;;;2.60;100.00
17525;BME280;40431;52.198;9.902;2022-12-08T09:00:37;99759.38;;;2.61;100.00
17525;BME280;40431;52.198;9.902;2022-12-08T09:03:05;99761.00;;;2.65;100.00
17525;BME280;40431;52.198;9.902;2022-12-08T09:05:31;99763.53;;;2.68;100.00
17525;BME280;40431;52.198;9.902;2022-12-08T09:07:58;99759.94;;;2.69;100.00
17525;BME280;40431;52.198;9.902;2022-12-08T09:10:25;99759.00;;;2.70;100.00
17525;BME280;40431;52.198;9.902;2022-12-08T09:12:52;99759.47;;;2.80;100.00
17525;BME280;40431;52.198;9.902;2022-12-08T09:15:18;99772.00;;;2.79;100.00
17525;BME280;40431;52.198;9.902;2022-12-08T09:17:45;99764.81;;;2.80;100.00
17525;BME280;40431;52.198;9.902;2022-12-08T09:20:13;99764.69;;;2.83;100.00
17525;BME280;40431;52.198;9.902;2022-12-08T09:22:40;99756.72;;;2.81;100.00
17525;BME280;40431;52.198;9.902;2022-12-08T09:25:07;99763.75;;;2.84;100.00
17525;BME280;40431;52.198;9.902;2022-12-08T09:27:33;99769.59;;;2.94;100.00
17525;BME280;40431;52.198;9.902;2022-12-08T09:30:00;99773.47;;;2.87;100.00
17525;BME280;40431;52.198;9.902;2022-12-08T09:32:27;99771.88;;;2.82;100.00
17525;BME280;40431;52.198;9.902;2022-12-08T09:34:54;99772.53;;;2.88;100.00
17525;BME280;40431;52.198;9.902;2022-12-08T09:37:22;99773.41;;;2.88;100.00
17525;BME280;40431;52.198;9.902;2022-12-08T09:39:48;99774.28;;;2.89;100.00
17525;BME280;40431;52.198;9.902;2022-12-08T09:42:22;99782.31;;;2.89;100.00
17525;BME280;40431;52.198;9.902;2022-12-08T09:44:56;99772.47;;;2.89;100.00
17525;BME280;40431;52.198;9.902;2022-12-08T09:47:43;99774.09;;;2.93;100.00
17525;BME280;40431;52.198;9.902;2022-12-08T09:50:14;99779.38;;;2.95;100.00
17525;BME280;40431;52.198;9.902;2022-12-08T09:52:51;99770.56;;;2.93;100.00
17525;BME280;40431;52.198;9.902;2022-12-08T09:55:35;99769.34;;;3.00;100.00
17525;BME280;40431;52.198;9.902;2022-12-08T09:58:08;99762.31;;;2.97;100.00
17525;BME280;40431;52.198;9.902;2022-12-08T10:00:36;99766.91;;;2.94;100.00
17525;BME280;40431;52.198;9.902;2022-12-08T10:03:03;99767.66;;;2.97;100.00
17525;BME280;40431;52.198;9.902;2022-12-08T10:05:36;99765.81;;;2.99;100.00
17525;BME280;40431;52.198;9.902;2022-12-08T10:08:11;99758.88;;;2.94;100.00
17525;BME280;40431;52.198;9.902;2022-12-08T10:10:53;99764.50;;;2.88;100.00
17525;BME280;40431;52.198;9.902;2022-12-08T10:13:30;99761.22;;;2.81;100.00
17525;BME280;40431;52.198;9.902;2022-12-08T10:16:11;99760.34;;;2.80;100.00
17525;BME280;40431;52.198;9.902;2022-12-08T10:18:45;99771.19;;;2.77;100.00
17525;BME280;40431;52.198;9.902;2022-12-08T10:21:19;99764.75;;;2.81;100.00
17525;BME280;40431;52.198;9.902;2022-12-08T10:23:56;99760.72;;;2.71;100.00
17525;BME280;40431;52.198;9.902;2022-12-08T10:26:25;99755.25;;;2.52;100.00
17525;BME280;40431;52.198;9.902;2022-12-08T10:28:53;99762.09;;;2.37;100.00
17525;BME280;40431;52.198;9.902;2022-12-08T10:31:28;99760.34;;;2.36;100.00
17525;BME280;40431;52.198;9.902;2022-12-08T10:34:00;99762.47;;;2.28;100.00
17525;BME280;40431;52.198;9.902;2022-12-08T10:36:48;99759.72;;;2.29;100.00
17525;BME280;40431;52.198;9.902;2022-12-08T10:39:35;99760.34;;;2.36;100.00
17525;BME280;40431;52.198;9.902;2022-12-08T10:42:16;99755.75;;;2.40;100.00
17525;BME280;40431;52.198;9.902;2022-12-08T10:44:59;99756.47;;;2.43;100.00
17525;BME280;40431;52.198;9.902;2022-12-08T10:47:34;99752.09;;;2.42;100.00
17525;BME280;40431;52.198;9.902;2022-12-08T10:50:17;99745.53;;;2.49;100.00
17525;BME280;40431;52.198;9.902;2022-12-08T10:52:53;99741.69;;;2.57;100.00
17525;BME280;40431;52.198;9.902;2022-12-08T10:55:23;99740.44;;;2.65;100.00
17525;BME280;40431;52.198;9.902;2022-12-08T10:57:52;99733.09;;;2.71;100.00
17525;BME280;40431;52.198;9.902;2022-12-08T11:00:25;99732.56;;;2.83;100.00
17525;BME280;40431;52.198;9.902;2022-12-08T11:02:57;99734.56;;;2.78;100.00
17525;BME280;40431;52.198;9.902;2022-12-08T11:05:28;99732.63;;;2.81;100.00
17525;BME280;40431;52.198;9.902;2022-12-08T11:07:57;99740.66;;;2.81;100.00
17525;BME280;40431;52.198;9.902;2022-12-08T11:10:33;99745.94;;;2.83;100.00
17525;BME280;40431;52.198;9.902;2022-12-08T11:13:10;99745.91;;;2.84;100.00
17525;BME280;40431;52.198;9.902;2022-12-08T11:15:45;99738.59;;;2.88;100.00
17525;BME280;40431;52.198;9.902;2022-12-08T11:18:26;99745.63;;;2.91;100.00
17525;BME280;40431;52.198;9.902;2022-12-08T11:21:00;99740.13;;;2.94;100.00
17525;BME280;40431;52.198;9.902;2022-12-08T11:23:29;99740.94;;;2.96;100.00
17525;BME280;40431;52.198;9.902;2022-12-08T11:26:03;99737.59;;;2.91;100.00
17525;BME280;40431;52.198;9.902;2022-12-08T11:28:32;99744.56;;;2.95;100.00
17525;BME280;40431;52.198;9.902;2022-12-08T11:31:05;99742.88;;;2.92;100.00
17525;BME280;40431;52.198;9.902;2022-12-08T11:33:36;99729.56;;;2.91;100.00
17525;BME280;40431;52.198;9.902;2022-12-08T11:36:08;99732.16;;;2.92;100.00
17525;BME280;40431;52.198;9.902;2022-12-08T11:38:40;99730.31;;;2.94;100.00
17525;BME280;40431;52.198;9.902;2022-12-08T11:41:16;99730.91;;;3.01;100.00
17525;BME280;40431;52.198;9.902;2022-12-08T11:43:55;99727.16;;;3.05;100.00
17525;BME280;40431;52.198;9.902;2022-12-08T11:46:31;99727.31;;;3.02;100.00
17525;BME280;40431;52.198;9.902;2022-12-08T11:49:05;99730.66;;;3.07;100.00
17525;BME280;40431;52.198;9.902;2022-12-08T11:51:39;99727.16;;;3.05;100.00
17525;BME280;40431;52.198;9.902;2022-12-08T11:54:21;99728.84;;;3.08;100.00
17525;BME280;40431;52.198;9.902;2022-12-08T11:56:54;99731.44;;;3.09;100.00
17525;BME280;40431;52.198;9.902;2022-12-08T11:59:27;99733.97;;;3.12;100.00
17525;BME280;40431;52.198;9.902;2022-12-08T12:02:04;99731.19;;;3.15;100.00
17525;BME280;40431;52.198;9.902;2022-12-08T12:04:38;99723.88;;;3.19;100.00
17525;BME280;40431;52.198;9.902;2022-12-08T12:07:48;99728.38;;;3.18;100.00
17525;BME280;40431;52.198;9.902;2022-12-08T12:10:42;99726.75;;;3.14;100.00
17525;BME280;40431;52.198;9.902;2022-12-08T12:13:32;99724.84;;;3.18;100.00
17525;BME280;40431;52.198;9.902;2022-12-08T12:16:21;99721.56;;;3.11;100.00
17525;BME280;40431;52.198;9.902;2022-12-08T12:18:55;99739.34;;;3.12;100.00
17525;BME280;40431;52.198;9.902;2022-12-08T12:21:27;99733.53;;;3.23;100.00
17525;BME280;40431;52.198;9.902;2022-12-08T12:24:04;99725.63;;;3.20;100.00
17525;BME280;40431;52.198;9.902;2022-12-08T12:26:36;99731.88;;;3.21;100.00
17525;BME280;40431;52.198;9.902;2022-12-08T12:29:20;99724.91;;;3.16;100.00
17525;BME280;40431;52.198;9.902;2022-12-08T12:31:58;99722.00;;;3.21;100.00
17525;BME280;40431;52.198;9.902;2022-12-08T12:34:33;99726.63;;;3.17;100.00
17525;BME280;40431;52.198;9.902;2022-12-08T12:37:06;99728.78;;;3.09;100.00
17525;BME280;40431;52.198;9.902;2022-12-08T12:39:46;99726.97;;;3.10;100.00
17525;BME280;40431;52.198;9.902;2022-12-08T12:42:39;99725.91;;;3.14;100.00
17525;BME280;40431;52.198;9.902;2022-12-08T12:45:28;99729.31;;;3.17;100.00
17525;BME280;40431;52.198;9.902;2022-12-08T12:48:20;99722.16;;;3.18;100.00
17525;BME280;40431;52.198;9.902;2022-12-08T12:50:48;99725.53;;;3.22;100.00
17525;BME280;40431;52.198;9.902;2022-12-08T12:53:45;99716.72;;;3.20;100.00
17525;BME280;40431;52.198;9.902;2022-12-08T12:56:47;99718.72;;;3.14;100.00
17525;BME280;40431;52.198;9.902;2022-12-08T12:59:34;99724.91;;;3.16;100.00
17525;BME280;40431;52.198;9.902;2022-12-08T13:02:19;99730.25;;;3.16;100.00
17525;BME280;40431;52.198;9.902;2022-12-08T13:05:01;99733.53;;;3.23;100.00
17525;BME280;40431;52.198;9.902;2022-12-08T13:07:41;99725.34;;;3.26;100.00
17525;BME280;40431;52.198;9.902;2022-12-08T13:10:17;99729.72;;;3.29;100.00
17525;BME280;40431;52.198;9.902;2022-12-08T13:13:03;99719.41;;;3.20;100.00
17525;BME280;40431;52.198;9.902;2022-12-08T13:15:40;99722.16;;;3.18;100.00
17525;BME280;40431;52.198;9.902;2022-12-08T13:18:19;99724.63;;;3.23;100.00
17525;BME280;40431;52.198;9.902;2022-12-08T13:20:52;99723.94;;;3.17;100.00
17525;BME280;40431;52.198;9.902;2022-12-08T13:26:17;99718.50;;;3.19;100.00
17525;BME280;40431;52.198;9.902;2022-12-08T13:29:12;99721.00;;;3.24;100.00
17525;BME280;40431;52.198;9.902;2022-12-08T13:31:41;99717.41;;;3.25;100.00
17525;BME280;40431;52.198;9.902;2022-12-08T13:34:15;99726.09;;;3.30;100.00
17525;BME280;40431;52.198;9.902;2022-12-08T13:37:00;99728.09;;;3.25;100.00
17525;BME280;40431;52.198;9.902;2022-12-08T13:39:40;99729.84;;;3.26;100.00
17525;BME280;40431;52.198;9.902;2022-12-08T13:42:20;99724.50;;;3.26;100.00